createdAt,value
2023-05-11T00:02:47.382Z,71.50
2023-05-11T00:05:52.137Z,71.60
2023-05-11T00:08:55.406Z,71.70
2023-05-11T00:11:58.770Z,71.80
2023-05-11T00:15:01.698Z,71.90
2023-05-11T00:18:04.939Z,72.00
2023-05-11T00:21:09.705Z,72.10
2023-05-11T00:24:12.832Z,72.20
2023-05-11T00:27:16.037Z,72.30
2023-05-11T00:30:19.773Z,72.40
2023-05-11T00:33:23.126Z,72.40
2023-05-11T00:36:27.817Z,72.50
2023-05-11T00:39:31.059Z,72.60
2023-05-11T00:42:34.353Z,72.80
2023-05-11T00:45:37.477Z,72.80
2023-05-11T00:48:40.779Z,72.80
2023-05-11T00:51:45.599Z,72.80
2023-05-11T00:54:49.565Z,73.00
2023-05-11T00:57:52.724Z,73.10
2023-05-11T01:00:55.853Z,73.20
2023-05-11T01:03:59.000Z,73.30
2023-05-11T01:07:09.626Z,73.40
2023-05-11T01:10:20.576Z,73.50
2023-05-11T01:13:32.025Z,73.50
2023-05-11T01:16:41.547Z,73.50
2023-05-11T01:19:49.689Z,73.70
2023-05-11T01:23:16.278Z,73.80
2023-05-11T01:26:43.603Z,73.80
2023-05-11T01:29:57.242Z,73.80
2023-05-11T01:33:08.499Z,73.90
2023-05-11T01:36:13.789Z,74.20
2023-05-11T01:39:20.774Z,74.60
2023-05-11T01:42:29.497Z,75.00
2023-05-11T01:45:35.316Z,75.30
2023-05-11T01:48:43.756Z,75.20
2023-05-11T01:51:51.513Z,75.20
2023-05-11T01:54:57.268Z,75.10
2023-05-11T01:58:02.051Z,75.00
2023-05-11T02:01:06.705Z,74.90
2023-05-11T02:04:13.351Z,74.80
2023-05-11T02:07:20.242Z,74.70
2023-05-11T02:10:27.084Z,74.70
2023-05-11T02:13:31.377Z,74.70
2023-05-11T02:16:35.152Z,74.70
2023-05-11T02:19:40.712Z,74.80
2023-05-11T02:22:44.584Z,75.20
2023-05-11T02:25:49.692Z,75.40
2023-05-11T02:28:52.901Z,75.40
2023-05-11T02:32:02.229Z,75.50
2023-05-11T02:35:12.477Z,75.50
2023-05-11T02:38:18.426Z,76.00
2023-05-11T02:41:28.009Z,75.70
2023-05-11T02:44:36.147Z,75.70
2023-05-11T02:47:43.566Z,75.70
2023-05-11T02:50:49.060Z,75.60
2023-05-11T02:53:56.248Z,75.20
2023-05-11T02:57:00.123Z,75.10
2023-05-11T03:00:04.313Z,74.90
2023-05-11T03:03:07.869Z,74.80
2023-05-11T03:06:14.248Z,74.70
2023-05-11T03:09:19.532Z,74.60
2023-05-11T03:12:23.001Z,74.60
2023-05-11T03:15:26.523Z,74.30
2023-05-11T03:18:31.006Z,73.80
2023-05-11T03:21:37.341Z,73.60
2023-05-11T03:24:41.307Z,73.40
2023-05-11T03:27:46.454Z,73.30
2023-05-11T03:30:51.219Z,73.30
2023-05-11T03:33:54.593Z,73.10
2023-05-11T03:37:00.539Z,72.80
2023-05-11T03:40:05.341Z,72.80
2023-05-11T03:43:11.962Z,72.40
2023-05-11T03:46:21.448Z,72.20
2023-05-11T03:49:26.237Z,72.20
2023-05-11T03:52:31.750Z,72.00
2023-05-11T03:55:35.045Z,71.70
2023-05-11T03:58:40.499Z,71.40
2023-05-11T04:01:44.727Z,71.10
2023-05-11T04:04:49.154Z,70.90
2023-05-11T04:07:53.578Z,70.80
2023-05-11T04:10:56.817Z,70.50
2023-05-11T04:13:59.798Z,70.50
2023-05-11T04:17:02.919Z,70.30
2023-05-11T04:20:06.838Z,69.80
2023-05-11T04:23:12.245Z,69.90
2023-05-11T04:26:15.391Z,69.80
2023-05-11T04:29:18.493Z,69.20
2023-05-11T04:32:21.651Z,68.70
2023-05-11T04:35:25.076Z,68.70
2023-05-11T04:38:29.720Z,68.40
2023-05-11T04:41:33.085Z,68.40
2023-05-11T04:44:36.186Z,68.20
2023-05-11T04:47:39.189Z,67.70
2023-05-11T04:50:42.813Z,67.30
2023-05-11T04:53:47.585Z,66.90
2023-05-11T04:56:53.696Z,66.80
2023-05-11T04:59:56.994Z,66.70
2023-05-11T05:03:00.358Z,66.20
2023-05-11T05:06:04.039Z,65.50
2023-05-11T05:09:08.442Z,65.00
2023-05-11T05:12:11.534Z,64.90
2023-05-11T05:15:14.956Z,64.70
2023-05-11T05:18:18.246Z,64.10
2023-05-11T05:21:21.341Z,63.00
2023-05-11T05:24:25.842Z,62.70
2023-05-11T05:27:29.240Z,61.90
2023-05-11T05:30:37.077Z,61.60
2023-05-11T05:33:40.149Z,61.70
2023-05-11T05:36:43.801Z,60.90
2023-05-11T05:39:48.581Z,60.20
2023-05-11T05:42:51.762Z,60.10
2023-05-11T05:45:54.953Z,59.40
2023-05-11T05:49:02.651Z,59.20
2023-05-11T05:52:06.332Z,58.90
2023-05-11T05:55:11.150Z,59.00
2023-05-11T05:58:14.107Z,58.20
2023-05-11T06:01:17.192Z,57.70
2023-05-11T06:04:20.546Z,57.30
2023-05-11T06:07:23.619Z,56.40
2023-05-11T06:10:28.464Z,56.20
2023-05-11T06:13:31.593Z,56.20
2023-05-11T06:16:34.923Z,56.50
2023-05-11T06:19:38.605Z,56.00
2023-05-11T06:22:41.611Z,55.10
2023-05-11T06:25:45.955Z,54.20
2023-05-11T06:28:48.936Z,54.00
2023-05-11T06:31:52.978Z,53.70
2023-05-11T06:34:56.161Z,53.10
2023-05-11T06:37:59.256Z,52.50
2023-05-11T06:41:03.667Z,52.70
2023-05-11T06:44:07.141Z,53.20
2023-05-11T06:47:10.211Z,52.40
2023-05-11T06:50:13.222Z,52.60
2023-05-11T06:53:17.737Z,52.20
2023-05-11T06:56:22.468Z,51.80
2023-05-11T06:59:25.530Z,51.90
2023-05-11T07:02:28.725Z,51.90
2023-05-11T07:05:32.345Z,52.50
2023-05-11T07:08:35.282Z,51.30
2023-05-11T07:11:40.968Z,51.50
2023-05-11T07:14:43.986Z,51.50
2023-05-11T07:17:48.347Z,51.50
2023-05-11T07:20:51.394Z,51.50
2023-05-11T07:23:54.427Z,52.20
2023-05-11T07:26:58.757Z,51.50
2023-05-11T07:30:02.989Z,51.50
2023-05-11T07:33:06.690Z,50.50
2023-05-11T07:36:10.234Z,50.50
2023-05-11T07:39:13.280Z,51.40
2023-05-11T07:42:17.641Z,51.20
2023-05-11T07:45:21.145Z,51.10
2023-05-11T07:48:24.099Z,50.30
2023-05-11T07:51:27.302Z,51.50
2023-05-11T07:54:30.661Z,50.20
2023-05-11T07:57:35.062Z,50.70
2023-05-11T08:00:38.056Z,51.40
2023-05-11T08:03:41.215Z,51.10
2023-05-11T08:06:44.808Z,51.10
2023-05-11T08:09:47.840Z,50.30
2023-05-11T08:12:52.478Z,50.50
2023-05-11T08:15:55.554Z,50.40
2023-05-11T08:18:58.590Z,51.20
2023-05-11T08:22:02.074Z,50.70
2023-05-11T08:25:05.629Z,50.70
2023-05-11T08:28:09.970Z,50.10
2023-05-11T08:31:14.294Z,50.40
2023-05-11T08:34:20.208Z,50.50
2023-05-11T08:37:24.466Z,49.70
2023-05-11T08:40:28.752Z,49.60
2023-05-11T08:43:36.120Z,49.80
2023-05-11T08:46:42.876Z,50.00
2023-05-11T08:49:46.457Z,50.30
2023-05-11T08:52:49.486Z,49.80
2023-05-11T08:55:53.128Z,48.50
2023-05-11T08:58:58.562Z,48.90
2023-05-11T09:02:03.285Z,48.80
2023-05-11T09:05:07.649Z,47.70
2023-05-11T09:08:13.992Z,48.10
2023-05-11T09:11:17.549Z,47.80
2023-05-11T09:14:26.928Z,48.20
2023-05-11T09:17:30.350Z,47.70
2023-05-11T09:20:35.164Z,47.00
2023-05-11T09:23:38.420Z,47.30
2023-05-11T09:26:41.616Z,47.00
2023-05-11T09:29:51.828Z,46.70
2023-05-11T09:32:58.848Z,45.90
2023-05-11T09:36:02.908Z,45.90
2023-05-11T09:39:06.266Z,45.50
2023-05-11T09:42:16.526Z,44.60
2023-05-11T09:45:40.841Z,44.70
2023-05-11T09:48:43.820Z,44.00
2023-05-11T09:51:47.186Z,44.20
2023-05-11T09:54:52.092Z,44.70
2023-05-11T09:57:56.502Z,44.60
2023-05-11T10:01:01.101Z,44.80
2023-05-11T10:04:17.913Z,44.40
2023-05-11T10:07:26.853Z,44.50
2023-05-11T10:10:31.540Z,45.00
2023-05-11T10:13:40.126Z,45.20
2023-05-11T10:16:45.479Z,45.00
2023-05-11T10:19:50.006Z,44.50
2023-05-11T10:22:55.182Z,44.60
2023-05-11T10:25:59.292Z,44.00
2023-05-11T10:29:02.942Z,43.40
2023-05-11T10:32:08.663Z,43.90
2023-05-11T10:35:12.423Z,44.40
2023-05-11T10:38:17.079Z,44.40
2023-05-11T10:41:34.750Z,44.00
2023-05-11T10:45:03.047Z,43.80
2023-05-11T10:48:43.098Z,44.10
2023-05-11T10:52:19.300Z,43.70
2023-05-11T10:55:33.344Z,42.80
2023-05-11T10:58:50.564Z,42.90
2023-05-11T11:01:58.444Z,43.90
2023-05-11T11:05:05.812Z,44.30
2023-05-11T11:08:09.730Z,43.20
2023-05-11T11:11:31.002Z,43.40
2023-05-11T11:14:54.865Z,43.70
2023-05-11T11:18:20.774Z,43.40
2023-05-11T11:21:45.406Z,42.90
2023-05-11T11:24:48.722Z,42.50
2023-05-11T11:27:59.397Z,43.40
2023-05-11T11:31:25.489Z,43.30
2023-05-11T11:34:39.494Z,44.40
2023-05-11T11:38:08.038Z,43.20
2023-05-11T11:41:11.124Z,43.60
2023-05-11T11:44:22.687Z,43.50
2023-05-11T11:47:26.830Z,43.70
2023-05-11T11:50:30.138Z,43.70
2023-05-11T11:54:08.081Z,44.00
2023-05-11T11:57:49.223Z,44.00
2023-05-11T12:00:53.833Z,43.40
2023-05-11T12:04:39.286Z,43.70
2023-05-11T12:07:44.100Z,43.60
2023-05-11T12:10:58.542Z,44.10
2023-05-11T12:14:02.295Z,43.30
2023-05-11T12:17:13.543Z,43.30
2023-05-11T12:20:18.777Z,43.40
2023-05-11T12:23:22.389Z,43.20
2023-05-11T12:26:29.640Z,42.50
2023-05-11T12:29:33.161Z,42.30
2023-05-11T12:32:36.485Z,41.50
2023-05-11T12:35:40.432Z,41.60
2023-05-11T12:38:47.551Z,41.40
2023-05-11T12:41:53.920Z,41.40
2023-05-11T12:44:57.537Z,41.10
2023-05-11T12:48:01.697Z,41.00
2023-05-11T12:51:04.892Z,41.00
2023-05-11T12:54:08.079Z,41.00
2023-05-11T12:57:25.494Z,40.50
2023-05-11T13:00:28.787Z,39.90
2023-05-11T13:03:34.040Z,40.20
2023-05-11T13:06:39.396Z,40.20
2023-05-11T13:09:42.748Z,40.60
2023-05-11T13:12:54.590Z,40.60
2023-05-11T13:15:57.590Z,40.00
2023-05-11T13:19:01.367Z,39.00
2023-05-11T13:22:05.020Z,38.60
2023-05-11T13:25:09.510Z,38.10
2023-05-11T13:28:15.453Z,38.20
2023-05-11T13:31:19.379Z,38.10
2023-05-11T13:34:23.983Z,38.50
2023-05-11T13:37:27.121Z,38.80
2023-05-11T13:40:30.268Z,39.30
2023-05-11T13:43:34.666Z,38.70
2023-05-11T13:46:37.793Z,38.90
2023-05-11T13:49:42.208Z,39.10
2023-05-11T13:52:45.962Z,39.90
2023-05-11T13:55:48.987Z,39.40
2023-05-11T13:58:53.447Z,39.20
2023-05-11T14:01:56.576Z,40.10
2023-05-11T14:04:59.629Z,39.80
2023-05-11T14:08:02.698Z,39.80
2023-05-11T14:11:06.023Z,40.20
2023-05-11T14:14:10.520Z,39.60
2023-05-11T14:17:14.495Z,40.20
2023-05-11T14:20:17.861Z,40.00
2023-05-11T14:23:20.919Z,39.70
2023-05-11T14:26:24.003Z,40.10
2023-05-11T14:29:28.433Z,39.50
2023-05-11T14:32:31.670Z,40.00
2023-05-11T14:35:35.721Z,40.00
2023-05-11T14:38:40.448Z,39.70
2023-05-11T14:41:43.656Z,40.00
2023-05-11T14:44:48.077Z,40.10
2023-05-11T14:47:51.453Z,39.60
2023-05-11T14:50:54.853Z,39.80
2023-05-11T14:53:57.925Z,39.60
2023-05-11T14:57:01.240Z,39.70
2023-05-11T15:00:07.361Z,39.60
2023-05-11T15:03:11.034Z,39.80
2023-05-11T15:06:21.060Z,39.70
2023-05-11T15:09:24.181Z,40.40
2023-05-11T15:12:27.155Z,40.70
2023-05-11T15:15:31.917Z,39.90
2023-05-11T15:18:35.056Z,39.60
2023-05-11T15:21:38.269Z,39.80
2023-05-11T15:24:41.311Z,39.50
2023-05-11T15:27:44.417Z,39.50
2023-05-11T15:30:52.093Z,39.80
2023-05-11T15:33:55.182Z,39.90
2023-05-11T15:36:58.735Z,39.20
2023-05-11T15:40:01.833Z,39.40
2023-05-11T15:43:05.092Z,39.30
2023-05-11T15:46:09.505Z,39.50
2023-05-11T15:49:12.818Z,40.00
2023-05-11T15:52:15.865Z,41.30
2023-05-11T15:55:18.994Z,40.00
2023-05-11T15:58:22.279Z,40.30
2023-05-11T16:01:26.681Z,39.80
2023-05-11T16:04:29.653Z,40.30
2023-05-11T16:07:32.725Z,40.70
2023-05-11T16:10:36.409Z,40.50
2023-05-11T16:13:39.568Z,40.50
2023-05-11T16:16:44.503Z,40.70
2023-05-11T16:19:48.864Z,41.00
2023-05-11T16:22:52.215Z,40.20
2023-05-11T16:25:56.383Z,40.60
2023-05-11T16:28:59.365Z,40.80
2023-05-11T16:32:05.259Z,41.20
2023-05-11T16:35:08.845Z,41.00
2023-05-11T16:38:17.615Z,41.20
2023-05-11T16:41:20.596Z,41.30
2023-05-11T16:44:23.822Z,41.50
2023-05-11T16:47:28.364Z,41.10
2023-05-11T16:50:31.339Z,41.30
2023-05-11T16:53:34.607Z,40.80
2023-05-11T16:56:38.067Z,41.00
2023-05-11T16:59:41.228Z,40.90
2023-05-11T17:02:46.278Z,41.60
2023-05-11T17:05:49.374Z,41.30
2023-05-11T17:08:53.026Z,41.00
2023-05-11T17:11:56.716Z,41.00
2023-05-11T17:15:00.706Z,41.50
2023-05-11T17:18:05.368Z,41.60
2023-05-11T17:21:10.356Z,41.90
2023-05-11T17:24:13.479Z,41.90
2023-05-11T17:27:16.461Z,42.10
2023-05-11T17:30:19.688Z,42.50
2023-05-11T17:33:25.406Z,42.20
2023-05-11T17:36:29.908Z,42.80
2023-05-11T17:39:33.240Z,42.80
2023-05-11T17:42:36.421Z,42.90
2023-05-11T17:45:39.499Z,42.60
2023-05-11T17:48:43.996Z,42.80
2023-05-11T17:51:47.908Z,43.00
2023-05-11T17:54:51.120Z,43.20
2023-05-11T17:57:54.234Z,43.40
2023-05-11T18:00:57.339Z,43.60
2023-05-11T18:04:02.561Z,43.30
2023-05-11T18:07:07.445Z,44.00
2023-05-11T18:10:11.180Z,43.90
2023-05-11T18:13:15.267Z,44.00
2023-05-11T18:16:20.353Z,44.30
2023-05-11T18:19:24.758Z,44.70
2023-05-11T18:22:29.869Z,44.80
2023-05-11T18:25:36.104Z,44.80
2023-05-11T18:28:39.410Z,44.80
2023-05-11T18:31:42.567Z,44.90
2023-05-11T18:34:47.047Z,45.20
2023-05-11T18:37:50.664Z,44.90
2023-05-11T18:40:53.872Z,45.20
2023-05-11T18:43:57.196Z,45.40
2023-05-11T18:47:00.543Z,45.40
2023-05-11T18:50:05.470Z,45.40
2023-05-11T18:53:11.628Z,45.90
2023-05-11T18:56:14.839Z,45.90
2023-05-11T18:59:18.108Z,46.10
2023-05-11T19:02:21.281Z,46.00
2023-05-11T19:05:25.793Z,46.20
2023-05-11T19:08:28.825Z,46.10
2023-05-11T19:11:31.920Z,46.30
2023-05-11T19:14:35.601Z,46.50
2023-05-11T19:17:38.872Z,46.80
2023-05-11T19:20:43.522Z,46.90
2023-05-11T19:23:48.272Z,46.90
2023-05-11T19:27:05.340Z,47.10
2023-05-11T19:30:10.844Z,47.20
2023-05-11T19:33:19.783Z,47.60
2023-05-11T19:36:24.591Z,47.60
2023-05-11T19:39:27.879Z,47.70
2023-05-11T19:42:39.538Z,47.80
2023-05-11T19:45:43.570Z,47.90
2023-05-11T19:48:47.411Z,48.30
2023-05-11T19:51:52.280Z,48.70
2023-05-11T19:54:55.300Z,48.30
2023-05-11T19:57:58.338Z,48.30
2023-05-11T20:01:01.325Z,48.40
2023-05-11T20:04:04.624Z,48.40
2023-05-11T20:07:10.433Z,48.60
2023-05-11T20:10:13.903Z,48.50
2023-05-11T20:13:16.917Z,49.00
2023-05-11T20:16:19.985Z,48.50
2023-05-11T20:19:26.096Z,48.70
2023-05-11T20:22:32.473Z,48.60
2023-05-11T20:25:43.477Z,48.70
2023-05-11T20:28:46.442Z,48.50
2023-05-11T20:31:49.729Z,48.40
2023-05-11T20:34:52.932Z,48.50
2023-05-11T20:37:57.550Z,48.70
2023-05-11T20:41:00.588Z,48.80
2023-05-11T20:44:03.925Z,49.20
2023-05-11T20:47:09.526Z,49.40
2023-05-11T20:50:13.278Z,49.50
2023-05-11T20:53:17.667Z,49.50
2023-05-11T20:56:21.483Z,49.80
2023-05-11T21:02:30.574Z,50.00
2023-05-11T21:05:33.748Z,50.10
2023-05-11T21:08:38.206Z,50.30
2023-05-11T21:11:41.346Z,50.50
2023-05-11T21:14:44.353Z,50.40
2023-05-11T21:17:47.565Z,50.70
2023-05-11T21:20:50.562Z,50.70
2023-05-11T21:23:54.940Z,50.70
2023-05-11T21:26:58.181Z,51.10
2023-05-11T21:30:01.346Z,51.30
2023-05-11T21:33:04.563Z,51.20
2023-05-11T21:36:09.202Z,51.20
2023-05-11T21:39:14.064Z,51.40
2023-05-11T21:42:17.309Z,51.40
2023-05-11T21:45:20.754Z,51.50
2023-05-11T21:48:23.843Z,51.60
2023-05-11T21:51:26.914Z,51.60
2023-05-11T21:54:31.410Z,51.90
2023-05-11T21:57:34.682Z,51.80
2023-05-11T22:00:38.050Z,51.90
2023-05-11T22:03:41.210Z,52.10
2023-05-11T22:06:44.360Z,52.00
2023-05-11T22:09:49.134Z,52.20
2023-05-11T22:12:52.273Z,52.30
2023-05-11T22:15:58.860Z,52.50
2023-05-11T22:19:01.958Z,52.50
2023-05-11T22:22:05.182Z,52.60
2023-05-11T22:25:11.002Z,52.20
2023-05-11T22:28:14.038Z,52.30
2023-05-11T22:31:17.076Z,52.20
2023-05-11T22:34:21.563Z,52.20
2023-05-11T22:37:24.873Z,52.00
2023-05-11T22:40:29.463Z,51.70
2023-05-11T22:43:32.543Z,51.80
2023-05-11T22:46:35.603Z,51.90
2023-05-11T22:49:38.726Z,51.70
2023-05-11T22:52:42.159Z,52.10
2023-05-11T22:55:46.549Z,52.10
2023-05-11T22:58:49.550Z,51.70
2023-05-11T23:01:52.691Z,51.80
2023-05-11T23:04:56.104Z,51.90
2023-05-11T23:07:59.905Z,52.20
2023-05-11T23:11:04.621Z,52.10
2023-05-11T23:14:07.831Z,52.10
2023-05-11T23:17:11.276Z,52.20
2023-05-11T23:20:14.808Z,52.30
2023-05-11T23:23:18.155Z,52.00
2023-05-11T23:26:22.646Z,52.00
2023-05-11T23:29:28.033Z,52.20
2023-05-11T23:32:32.331Z,52.30
2023-05-11T23:35:35.643Z,52.10
2023-05-11T23:38:38.691Z,52.20
2023-05-11T23:41:43.512Z,52.20
2023-05-11T23:44:46.913Z,52.20
2023-05-11T23:47:51.823Z,52.30
2023-05-11T23:50:54.936Z,52.30
2023-05-11T23:53:57.936Z,52.40
2023-05-11T23:57:02.896Z,52.20
